KBKD/BKD METAR and TAF weather

Enter ICAO airport designator
Station Type Date Time Source
KBKD METAR 2019/02/23 16:55 UTC NOAA

KBKD 231655Z AUTO 27018G30KT 10SM CLR 15/M05 A2987 RMK AO2 T01511051


Station Type Date Time Source
KBKD Decoded METAR 2019/02/23 16:55 UTC NOAA

Station name not available
Feb 23, 2019 - 11:55 AM EST / 2019.02.23 1655 UTC
Wind: from the W (270 degrees) at 21 MPH (18 KT) gusting to 35 MPH (30 KT):0
Visibility: 10 mile(s):0
Sky conditions: clear
Temperature: 59.2 F (15.1 C)
Dew Point: 22.8 F (-5.1 C)
Relative Humidity: 24%
Pressure (altimeter): 29.87 in. Hg (1011 hPa)
ob: KBKD 231655Z AUTO 27018G30KT 10SM CLR 15/M05 A2987 RMK AO2 T01511051
cycle: 17

Station Type Date Time Source
KBKD TAF UTC NOAA

Error!


Example: see airport list